createdAt,value
2022-11-04T00:00:22.907Z,15.08
2022-11-04T00:02:59.419Z,15.75
2022-11-04T00:05:27.588Z,15.99
2022-11-04T00:08:14.304Z,15.22
2022-11-04T00:11:01.312Z,14.19
2022-11-04T00:13:30.345Z,13.44
2022-11-04T00:16:20.494Z,12.96
2022-11-04T00:18:48.669Z,13.01
2022-11-04T00:21:35.888Z,14.34
2022-11-04T00:24:23.886Z,15.58
2022-11-04T00:27:10.939Z,16.10
2022-11-04T00:29:40.049Z,16.07
2022-11-04T00:32:27.466Z,15.26
2022-11-04T00:34:55.745Z,14.36
2022-11-04T00:37:26.371Z,13.77
2022-11-04T00:39:54.357Z,13.31
2022-11-04T00:42:23.226Z,13.24
2022-11-04T00:44:51.408Z,14.45
2022-11-04T00:47:19.433Z,15.56
2022-11-04T00:49:47.450Z,16.02
2022-11-04T00:52:15.629Z,16.16
2022-11-04T00:54:44.199Z,15.70
2022-11-04T00:57:13.934Z,14.85
2022-11-04T00:59:42.909Z,14.14
2022-11-04T01:02:12.106Z,13.75
2022-11-04T01:04:40.282Z,13.79
2022-11-04T01:07:08.552Z,13.90
2022-11-04T01:09:36.842Z,13.96
2022-11-04T01:12:05.183Z,13.92
2022-11-04T01:14:33.349Z,13.76
2022-11-04T01:17:01.563Z,13.62
2022-11-04T01:19:29.670Z,13.58
2022-11-04T01:21:57.943Z,14.27
2022-11-04T01:24:26.335Z,15.07
2022-11-04T01:26:54.345Z,15.79
2022-11-04T01:29:22.455Z,16.42
2022-11-04T01:31:50.520Z,16.69
2022-11-04T01:34:18.759Z,16.66
2022-11-04T01:36:46.957Z,15.87
2022-11-04T01:39:16.912Z,14.98
2022-11-04T01:41:45.240Z,14.55
2022-11-04T01:44:41.763Z,15.23
2022-11-04T01:47:25.183Z,16.02
2022-11-04T01:50:22.011Z,16.28
2022-11-04T01:52:56.456Z,16.42
2022-11-04T01:55:28.782Z,16.20
2022-11-04T01:58:03.034Z,15.42
2022-11-04T02:00:31.452Z,14.67
2022-11-04T02:03:13.451Z,14.34
2022-11-04T02:05:42.918Z,14.65
2022-11-04T02:08:12.528Z,15.06
2022-11-04T02:10:46.740Z,15.34
2022-11-04T02:13:14.938Z,15.37
2022-11-04T02:16:08.077Z,15.36
2022-11-04T02:19:02.677Z,15.33
2022-11-04T02:22:06.881Z,15.33
2022-11-04T02:24:53.415Z,15.32
2022-11-04T02:27:36.447Z,15.33
2022-11-04T02:30:04.601Z,15.41
2022-11-04T02:33:18.239Z,15.60
2022-11-04T02:36:01.609Z,16.32
2022-11-04T02:38:51.111Z,16.67
2022-11-04T02:41:37.768Z,16.60
2022-11-04T02:44:28.215Z,15.78
2022-11-04T02:47:17.667Z,14.95
2022-11-04T02:50:14.731Z,14.70
2022-11-04T02:52:51.367Z,15.79
2022-11-04T02:55:32.845Z,16.55
2022-11-04T02:58:06.193Z,16.62
2022-11-04T03:00:37.227Z,16.10
2022-11-04T03:03:11.562Z,15.30
2022-11-04T03:05:43.779Z,14.58
2022-11-04T03:08:38.733Z,14.31
2022-11-04T03:11:12.488Z,15.00
2022-11-04T03:14:00.137Z,15.23
2022-11-04T03:16:41.260Z,15.55
2022-11-04T03:19:40.622Z,16.00
2022-11-04T03:22:08.666Z,16.50
2022-11-04T03:24:37.926Z,16.57
2022-11-04T03:27:38.626Z,16.20
2022-11-04T03:30:12.493Z,15.31
2022-11-04T03:32:59.977Z,14.60
2022-11-04T03:35:29.149Z,14.31
2022-11-04T03:37:58.258Z,14.16
2022-11-04T03:40:27.043Z,14.38
2022-11-04T03:43:00.853Z,14.46
2022-11-04T03:45:29.570Z,14.42
2022-11-04T03:47:58.327Z,14.88
2022-11-04T03:50:31.826Z,15.04
2022-11-04T03:53:00.537Z,15.70
2022-11-04T03:55:43.636Z,16.52
2022-11-04T03:58:28.452Z,17.05
2022-11-04T04:01:11.858Z,17.33
2022-11-04T04:03:50.555Z,17.36
2022-11-04T04:06:24.708Z,16.39
2022-11-04T04:09:11.424Z,15.45
2022-11-04T04:11:46.404Z,14.67
2022-11-04T04:14:40.035Z,14.31
2022-11-04T04:17:24.140Z,14.50
2022-11-04T04:20:04.391Z,14.31
2022-11-04T04:22:54.581Z,14.08
2022-11-04T04:25:47.016Z,13.94
2022-11-04T04:28:18.611Z,13.97
2022-11-04T04:30:47.893Z,14.29
2022-11-04T04:33:18.648Z,14.44
2022-11-04T04:35:55.147Z,14.44
2022-11-04T04:38:43.102Z,14.12
2022-11-04T04:41:41.101Z,13.80
2022-11-04T04:44:37.513Z,13.56
2022-11-04T04:47:07.981Z,13.29
2022-11-04T04:49:36.219Z,13.13
2022-11-04T04:52:07.358Z,13.03
2022-11-04T04:54:35.636Z,12.89
2022-11-04T04:57:03.927Z,12.74
2022-11-04T04:59:32.138Z,12.60
2022-11-04T05:02:00.472Z,12.48
2022-11-04T05:04:28.754Z,12.42
2022-11-04T05:06:56.996Z,12.41
2022-11-04T05:09:25.070Z,12.38
2022-11-04T05:11:53.143Z,12.34
2022-11-04T05:14:21.398Z,12.42
2022-11-04T05:16:49.473Z,12.62
2022-11-04T05:19:17.901Z,12.59
2022-11-04T05:21:46.137Z,12.36
2022-11-04T05:24:15.831Z,12.21
2022-11-04T05:26:44.756Z,12.29
2022-11-04T05:31:44.235Z,12.14
2022-11-04T05:34:14.140Z,12.05
2022-11-04T05:36:42.753Z,11.96
2022-11-04T05:39:13.965Z,11.82
2022-11-04T05:41:42.706Z,11.81
2022-11-04T05:44:11.405Z,11.83
2022-11-04T05:46:40.861Z,11.70
2022-11-04T05:49:12.055Z,11.57
2022-11-04T05:51:40.821Z,11.52
2022-11-04T05:54:09.640Z,11.60
2022-11-04T05:56:38.001Z,11.65
2022-11-04T05:59:06.175Z,11.54
2022-11-04T06:01:39.817Z,11.39
2022-11-04T06:04:15.856Z,11.27
2022-11-04T06:06:45.051Z,11.24
2022-11-04T06:09:13.530Z,11.16
2022-11-04T06:11:41.890Z,11.12
2022-11-04T06:14:12.563Z,11.10
2022-11-04T06:16:44.584Z,11.08
2022-11-04T06:19:15.923Z,11.06
2022-11-04T06:21:45.663Z,11.05
2022-11-04T06:24:14.234Z,11.03
2022-11-04T06:26:42.604Z,11.02
2022-11-04T06:29:10.991Z,11.04
2022-11-04T06:31:39.264Z,11.04
2022-11-04T06:34:08.951Z,11.01
2022-11-04T06:36:38.199Z,10.99
2022-11-04T06:39:06.558Z,10.98
2022-11-04T06:41:34.938Z,10.97
2022-11-04T06:44:03.620Z,10.97
2022-11-04T06:46:38.396Z,11.03
2022-11-04T06:49:11.679Z,11.05
2022-11-04T06:51:40.278Z,11.11
2022-11-04T06:54:08.967Z,11.06
2022-11-04T06:56:37.537Z,11.01
2022-11-04T06:59:06.548Z,11.00
2022-11-04T07:01:36.971Z,11.01
2022-11-04T07:04:05.614Z,11.03
2022-11-04T07:06:35.423Z,11.07
2022-11-04T07:09:05.878Z,11.10
2022-11-04T07:11:34.368Z,11.13
2022-11-04T07:14:02.939Z,11.18
2022-11-04T07:16:31.297Z,11.22
2022-11-04T07:18:59.818Z,11.27
2022-11-04T07:21:29.111Z,11.31
2022-11-04T07:23:57.895Z,11.36
2022-11-04T07:26:26.375Z,11.42
2022-11-04T07:28:54.968Z,11.47
2022-11-04T07:31:25.401Z,11.52
2022-11-04T07:33:54.657Z,11.58
2022-11-04T07:36:23.260Z,11.63
2022-11-04T07:38:52.282Z,11.68
2022-11-04T07:41:21.863Z,11.73
2022-11-04T07:43:51.898Z,11.78
2022-11-04T07:46:21.030Z,11.80
2022-11-04T07:48:49.459Z,11.90
2022-11-04T07:51:20.609Z,12.05
2022-11-04T07:53:50.940Z,12.09
2022-11-04T07:56:19.627Z,12.05
2022-11-04T07:58:48.516Z,12.03
2022-11-04T08:01:20.523Z,12.02
2022-11-04T08:03:52.695Z,12.02
2022-11-04T08:06:22.212Z,12.03
2022-11-04T08:08:54.288Z,12.06
2022-11-04T08:11:25.471Z,12.08
2022-11-04T08:13:57.121Z,12.11
2022-11-04T08:16:29.952Z,12.14
2022-11-04T08:19:02.836Z,12.16
2022-11-04T08:21:33.699Z,12.19
2022-11-04T08:24:06.213Z,12.24
2022-11-04T08:26:34.852Z,12.31
2022-11-04T08:29:08.310Z,12.38
2022-11-04T08:31:37.623Z,12.47
2022-11-04T08:34:08.507Z,12.55
2022-11-04T08:36:41.012Z,12.63
2022-11-04T08:39:11.357Z,12.71
2022-11-04T08:41:43.261Z,12.78
2022-11-04T08:44:14.955Z,12.84
2022-11-04T08:46:45.436Z,12.90
2022-11-04T08:49:19.601Z,12.95
2022-11-04T08:51:56.804Z,13.00
2022-11-04T08:54:26.944Z,13.06
2022-11-04T08:56:55.634Z,13.13
2022-11-04T08:59:25.451Z,13.21
2022-11-04T09:01:54.325Z,13.31
2022-11-04T09:04:24.883Z,13.42
2022-11-04T09:06:57.193Z,13.52
2022-11-04T09:09:26.998Z,13.62
2022-11-04T09:11:57.165Z,13.70
2022-11-04T09:14:26.873Z,13.75
2022-11-04T09:16:56.945Z,13.80
2022-11-04T09:19:26.821Z,13.83
2022-11-04T09:21:56.167Z,13.85
2022-11-04T09:24:25.580Z,13.86
2022-11-04T09:26:55.025Z,13.85
2022-11-04T09:29:23.798Z,13.88
2022-11-04T09:31:53.429Z,13.88
2022-11-04T09:34:22.995Z,13.85
2022-11-04T09:36:56.869Z,13.83
2022-11-04T09:39:26.889Z,13.80
2022-11-04T09:41:59.260Z,13.78
2022-11-04T09:47:56.359Z,13.74
2022-11-04T09:50:30.268Z,13.73
2022-11-04T09:53:07.348Z,13.72
2022-11-04T09:55:47.389Z,13.70
2022-11-04T09:58:15.792Z,13.68
2022-11-04T10:01:08.145Z,13.68
2022-11-04T10:04:22.252Z,13.70
2022-11-04T10:07:05.910Z,13.74
2022-11-04T10:10:02.350Z,13.77
2022-11-04T10:13:03.969Z,13.78
2022-11-04T10:15:41.541Z,13.78
2022-11-04T10:18:25.409Z,13.77
2022-11-04T10:21:19.185Z,13.75
2022-11-04T10:24:15.771Z,13.75
2022-11-04T10:27:00.366Z,13.74
2022-11-04T10:29:44.537Z,13.73
2022-11-04T10:32:28.385Z,13.75
2022-11-04T10:35:02.597Z,13.76
2022-11-04T10:37:31.688Z,13.76
2022-11-04T10:40:18.435Z,13.77
2022-11-04T10:42:47.649Z,13.78
2022-11-04T10:45:16.397Z,13.81
2022-11-04T10:47:55.425Z,13.86
2022-11-04T10:50:42.756Z,13.89
2022-11-04T10:53:13.695Z,13.92
2022-11-04T10:55:45.033Z,13.93
2022-11-04T10:58:22.220Z,13.92
2022-11-04T11:00:52.002Z,13.87
2022-11-04T11:03:35.171Z,13.82
2022-11-04T11:06:11.639Z,13.75
2022-11-04T11:09:12.968Z,13.71
2022-11-04T11:11:50.600Z,13.66
2022-11-04T11:15:14.503Z,13.63
2022-11-04T11:17:45.069Z,13.61
2022-11-04T11:20:59.955Z,13.61
2022-11-04T11:23:43.784Z,13.66
2022-11-04T11:26:57.360Z,13.72
2022-11-04T11:30:09.064Z,13.82
2022-11-04T11:32:43.482Z,13.88
2022-11-04T11:35:55.279Z,13.90
2022-11-04T11:38:29.388Z,13.91
2022-11-04T11:41:47.959Z,13.92
2022-11-04T11:44:33.211Z,13.95
2022-11-04T11:47:55.148Z,14.14
2022-11-04T11:50:34.623Z,14.86
2022-11-04T11:53:58.484Z,15.43
2022-11-04T11:57:07.405Z,15.89
2022-11-04T12:03:31.154Z,17.06
2022-11-04T12:09:41.799Z,18.14
2022-11-04T12:12:19.281Z,18.50
2022-11-04T12:14:50.319Z,18.56
2022-11-04T12:17:32.500Z,18.04
2022-11-04T12:20:17.323Z,17.46
2022-11-04T12:23:38.403Z,16.97
2022-11-04T12:26:31.573Z,16.51
2022-11-04T12:29:50.225Z,16.23
2022-11-04T12:32:27.810Z,16.72
2022-11-04T12:35:23.953Z,17.30
2022-11-04T12:38:15.782Z,17.74
2022-11-04T12:41:34.324Z,18.00
2022-11-04T12:44:17.728Z,17.89
2022-11-04T12:46:59.867Z,17.27
2022-11-04T12:49:31.111Z,16.76
2022-11-04T12:52:09.628Z,16.39
2022-11-04T12:55:05.765Z,16.27
2022-11-04T12:57:56.881Z,16.75
2022-11-04T13:00:28.414Z,16.88
2022-11-04T13:03:15.225Z,16.90
2022-11-04T13:05:53.345Z,16.97
2022-11-04T13:08:34.822Z,17.21
2022-11-04T13:11:24.903Z,17.47
2022-11-04T13:14:19.460Z,17.56
2022-11-04T13:16:54.686Z,17.67
2022-11-04T13:19:31.821Z,17.65
2022-11-04T13:22:09.724Z,17.21
2022-11-04T13:24:40.605Z,16.74
2022-11-04T13:27:35.879Z,16.39
2022-11-04T13:30:08.709Z,16.07
2022-11-04T13:33:09.805Z,15.92
2022-11-04T13:35:44.331Z,16.19
2022-11-04T13:38:18.752Z,16.37
2022-11-04T13:40:59.527Z,16.44
2022-11-04T13:43:39.479Z,16.35
2022-11-04T13:46:11.032Z,16.41
2022-11-04T13:49:00.097Z,16.76
2022-11-04T13:52:07.271Z,17.13
2022-11-04T13:54:42.071Z,17.51
2022-11-04T13:57:20.046Z,17.62
2022-11-04T14:00:13.457Z,17.57
2022-11-04T14:03:21.790Z,17.49
2022-11-04T14:05:59.127Z,17.44
2022-11-04T14:08:27.770Z,17.47
2022-11-04T14:10:56.444Z,17.49
2022-11-04T14:13:27.907Z,17.45
2022-11-04T14:16:02.320Z,17.32
2022-11-04T14:18:32.232Z,17.04
2022-11-04T14:21:13.921Z,16.85
2022-11-04T14:23:45.682Z,16.69
2022-11-04T14:26:16.934Z,16.57
2022-11-04T14:29:01.083Z,16.42
2022-11-04T14:31:41.649Z,16.50
2022-11-04T14:34:26.829Z,16.49
2022-11-04T14:36:58.484Z,16.43
2022-11-04T14:39:40.260Z,16.44
2022-11-04T14:42:14.069Z,16.47
2022-11-04T14:44:49.610Z,16.53
2022-11-04T14:47:23.130Z,16.82
2022-11-04T14:50:05.766Z,17.12
2022-11-04T14:52:39.241Z,17.26
2022-11-04T14:55:24.815Z,17.39
2022-11-04T14:57:56.214Z,17.51
2022-11-04T15:00:33.547Z,17.59
2022-11-04T15:04:08.726Z,17.76
2022-11-04T15:06:11.689Z,18.37
2022-11-04T15:08:43.166Z,18.31
2022-11-04T15:11:16.974Z,17.68
2022-11-04T15:13:57.191Z,17.02
2022-11-04T15:16:30.144Z,16.49
2022-11-04T15:18:59.691Z,16.08
2022-11-04T15:21:28.378Z,15.75
2022-11-04T15:23:57.462Z,15.54
2022-11-04T15:26:30.413Z,15.76
2022-11-04T15:29:02.416Z,16.46
2022-11-04T15:31:33.075Z,17.10
2022-11-04T15:34:03.693Z,17.33
2022-11-04T15:36:36.254Z,17.45
2022-11-04T15:39:13.677Z,17.52
2022-11-04T15:42:02.820Z,17.59
2022-11-04T15:44:34.468Z,17.60
2022-11-04T15:47:20.366Z,17.52
2022-11-04T15:49:50.986Z,17.47
2022-11-04T15:52:25.415Z,17.41
2022-11-04T15:54:56.137Z,17.36
2022-11-04T15:57:32.498Z,17.36
2022-11-04T16:00:04.269Z,18.03
2022-11-04T16:02:54.386Z,18.65
2022-11-04T16:05:27.768Z,18.49
2022-11-04T16:08:14.362Z,17.68
2022-11-04T16:10:43.092Z,16.81
2022-11-04T16:13:15.312Z,16.22
2022-11-04T16:16:09.484Z,16.02
2022-11-04T16:18:37.783Z,17.19
2022-11-04T16:21:12.789Z,18.20
2022-11-04T16:23:48.752Z,18.51
2022-11-04T16:26:23.395Z,17.73
2022-11-04T16:28:57.552Z,16.90
2022-11-04T16:31:33.563Z,16.27
2022-11-04T16:34:03.909Z,16.08
2022-11-04T16:36:35.852Z,17.14
2022-11-04T16:39:09.397Z,18.18
2022-11-04T16:41:40.520Z,18.51
2022-11-04T16:44:20.657Z,17.79
2022-11-04T16:46:49.957Z,16.94
2022-11-04T16:49:22.334Z,16.35
2022-11-04T16:51:56.202Z,16.24
2022-11-04T16:54:25.974Z,17.44
2022-11-04T16:56:56.651Z,18.50
2022-11-04T16:59:27.023Z,18.80
2022-11-04T17:01:56.930Z,18.04
2022-11-04T17:04:26.496Z,17.21
2022-11-04T17:06:55.927Z,16.58
2022-11-04T17:09:25.504Z,16.43
2022-11-04T17:11:55.172Z,17.51
2022-11-04T17:14:24.897Z,18.49
2022-11-04T17:16:57.702Z,18.85
2022-11-04T17:19:34.277Z,18.07
2022-11-04T17:22:08.823Z,17.16
2022-11-04T17:24:39.371Z,16.48
2022-11-04T17:27:10.315Z,16.23
2022-11-04T17:29:40.464Z,16.79
2022-11-04T17:32:10.944Z,17.50
2022-11-04T17:34:41.313Z,17.94
2022-11-04T17:37:13.684Z,18.26
2022-11-04T17:39:42.849Z,18.34
2022-11-04T17:42:33.662Z,17.65
2022-11-04T17:45:04.975Z,16.80
2022-11-04T17:47:37.704Z,16.23
2022-11-04T17:50:08.203Z,16.12
2022-11-04T17:52:39.770Z,17.12
2022-11-04T17:55:15.385Z,18.07
2022-11-04T17:57:45.826Z,18.66
2022-11-04T18:00:15.001Z,18.66
2022-11-04T18:02:43.702Z,17.84
2022-11-04T18:05:12.673Z,16.97
2022-11-04T18:07:42.760Z,16.25
2022-11-04T18:10:11.875Z,15.86
2022-11-04T18:12:41.861Z,16.34
2022-11-04T18:15:12.980Z,16.39
2022-11-04T18:17:43.742Z,16.06
2022-11-04T18:20:15.668Z,15.84
2022-11-04T18:22:45.516Z,15.87
2022-11-04T18:25:14.230Z,15.86
2022-11-04T18:27:42.998Z,16.52
2022-11-04T18:30:12.936Z,17.13
2022-11-04T18:32:42.407Z,17.51
2022-11-04T18:35:11.961Z,17.68
2022-11-04T18:37:45.883Z,17.35
2022-11-04T18:40:18.410Z,16.72
2022-11-04T18:42:48.619Z,16.26
2022-11-04T18:45:20.429Z,15.97
2022-11-04T18:47:50.850Z,15.71
2022-11-04T18:50:20.845Z,15.53
2022-11-04T18:52:55.602Z,15.28
2022-11-04T18:55:26.675Z,14.96
2022-11-04T18:57:56.441Z,14.73
2022-11-04T19:00:26.666Z,14.58
2022-11-04T19:02:56.876Z,14.59
2022-11-04T19:05:26.788Z,14.55
2022-11-04T19:07:56.263Z,14.71
2022-11-04T19:10:26.505Z,14.83
2022-11-04T19:13:14.976Z,15.18
2022-11-04T19:15:45.454Z,15.66
2022-11-04T19:18:18.783Z,15.64
2022-11-04T19:20:49.076Z,15.45
2022-11-04T19:23:18.746Z,15.28
2022-11-04T19:25:48.390Z,15.12
2022-11-04T19:28:37.305Z,15.02
2022-11-04T19:31:10.236Z,15.01
2022-11-04T19:33:40.053Z,15.09
2022-11-04T19:36:12.697Z,15.20
2022-11-04T19:38:44.533Z,15.29
2022-11-04T19:41:37.183Z,15.41
2022-11-04T19:44:10.110Z,15.50
2022-11-04T19:46:40.027Z,15.75
2022-11-04T19:49:10.672Z,16.10
2022-11-04T19:51:40.509Z,16.46
2022-11-04T19:54:10.942Z,16.62
2022-11-04T19:56:40.162Z,16.62
2022-11-04T19:59:09.686Z,16.56
2022-11-04T20:01:39.626Z,16.21
2022-11-04T20:04:10.147Z,15.79
2022-11-04T20:06:39.754Z,15.60
2022-11-04T20:09:11.419Z,15.47
2022-11-04T20:11:59.553Z,15.46
2022-11-04T20:14:29.477Z,15.54
2022-11-04T20:16:58.377Z,15.56
2022-11-04T20:20:19.810Z,15.52
2022-11-04T20:23:39.752Z,15.38
2022-11-04T20:26:17.601Z,15.11
2022-11-04T20:28:49.053Z,14.85
2022-11-04T20:31:24.286Z,14.72
2022-11-04T20:33:54.496Z,14.57
2022-11-04T20:36:26.778Z,14.38
2022-11-04T20:38:57.630Z,14.52
2022-11-04T20:41:28.482Z,14.48
2022-11-04T20:43:58.687Z,14.21
2022-11-04T20:46:30.550Z,13.87
2022-11-04T20:48:59.152Z,13.53
2022-11-04T20:51:31.845Z,13.26
2022-11-04T20:54:04.197Z,13.05
2022-11-04T20:56:37.782Z,12.98
2022-11-04T20:59:07.303Z,12.89
2022-11-04T21:01:38.842Z,12.80
2022-11-04T21:04:15.544Z,12.82
2022-11-04T21:06:46.156Z,12.73
2022-11-04T21:09:17.210Z,12.82
2022-11-04T21:11:46.721Z,13.20
2022-11-04T21:14:16.964Z,13.57
2022-11-04T21:16:46.267Z,13.80
2022-11-04T21:19:16.848Z,14.01
2022-11-04T21:21:47.085Z,13.90
2022-11-04T21:24:17.214Z,13.73
2022-11-04T21:26:46.640Z,13.62
2022-11-04T21:29:17.787Z,13.58
2022-11-04T21:31:47.720Z,13.52
2022-11-04T21:34:17.835Z,13.44
2022-11-04T21:36:50.619Z,13.36
2022-11-04T21:39:19.934Z,13.26
2022-11-04T21:41:49.220Z,13.10
2022-11-04T21:44:18.532Z,12.94
2022-11-04T21:46:50.095Z,12.74
2022-11-04T21:49:18.903Z,12.65
2022-11-04T21:51:48.308Z,12.57
2022-11-04T21:54:17.624Z,12.57
2022-11-04T21:56:46.772Z,12.51
2022-11-04T21:59:18.383Z,12.33
2022-11-04T22:01:47.375Z,12.22
2022-11-04T22:04:16.416Z,12.17
2022-11-04T22:06:45.840Z,12.34
2022-11-04T22:09:14.455Z,12.59
2022-11-04T22:11:43.311Z,12.87
2022-11-04T22:14:12.830Z,13.27
2022-11-04T22:16:41.249Z,13.46
2022-11-04T22:19:14.124Z,13.79
2022-11-04T22:21:45.344Z,13.98
2022-11-04T22:24:16.394Z,13.96
2022-11-04T22:26:44.866Z,13.82
2022-11-04T22:29:13.360Z,13.65
2022-11-04T22:31:43.178Z,13.41
2022-11-04T22:34:11.552Z,13.24
2022-11-04T22:36:40.039Z,12.98
2022-11-04T22:39:16.092Z,12.79
2022-11-04T22:41:46.647Z,12.70
2022-11-04T22:44:15.531Z,12.68
2022-11-04T22:46:43.905Z,12.78
2022-11-04T22:49:14.770Z,12.65
2022-11-04T22:51:43.431Z,12.47
2022-11-04T22:54:11.916Z,12.45
2022-11-04T22:56:41.227Z,12.51
2022-11-04T22:59:11.174Z,12.48
2022-11-04T23:01:40.248Z,12.44
2022-11-04T23:04:12.186Z,12.22
2022-11-04T23:06:41.200Z,12.06
2022-11-04T23:09:12.544Z,11.95
2022-11-04T23:11:59.367Z,11.85
2022-11-04T23:14:43.242Z,12.08
2022-11-04T23:17:35.652Z,12.25
2022-11-04T23:20:07.602Z,12.15
2022-11-04T23:22:55.462Z,11.98
2022-11-04T23:25:25.069Z,11.95
2022-11-04T23:28:14.030Z,12.01
2022-11-04T23:30:45.940Z,12.03
2022-11-04T23:33:15.509Z,11.95
2022-11-04T23:36:07.546Z,11.69
2022-11-04T23:38:36.238Z,11.86
2022-11-04T23:41:25.826Z,12.12
2022-11-04T23:43:54.199Z,12.29
2022-11-04T23:46:43.370Z,12.31
2022-11-04T23:49:31.092Z,12.14
2022-11-04T23:52:18.040Z,12.02
2022-11-04T23:55:05.347Z,11.90
2022-11-04T23:57:52.057Z,11.92
